Time;durP1;ratioP1;P1;durP2;ratioP2;P2;SDS_P1;SDS_P2;PMS_P1;PMS_P2;Temp;Humidity;BMP_temperature;BMP_pressure;BME280_temperature;BME280_humidity;BME280_pressure;Samples;Min_cycle;Max_cycle;Signal;HPM_P1;HPM_P2
2022/08/13 00:01:38;;;;;;;7.35;3.42;;;23.50;46.30;;;;;;6304066;22;20339;-89
2022/08/13 00:04:17;;;;;;;7.47;3.60;;;23.40;47.00;;;;;;6304400;22;20360;-82
2022/08/13 00:09:12;;;;;;;6.45;3.50;;;23.40;99.90;;;;;;6304513;22;20072;-87
2022/08/13 00:14:26;;;;;;;7.28;3.70;;;23.40;59.60;;;;;;6303936;22;20137;-84
2022/08/13 00:16:56;;;;;;;11.23;3.70;;;23.40;99.90;;;;;;6305437;22;20003;-82
2022/08/13 00:19:26;;;;;;;11.13;3.53;;;23.70;99.90;;;;;;6278129;22;20077;-88
2022/08/13 00:21:54;;;;;;;10.23;3.60;;;23.40;99.90;;;;;;6304756;22;20011;-89
2022/08/13 00:24:19;;;;;;;7.85;3.63;;;23.40;99.90;;;;;;6304897;22;20398;-90
2022/08/13 00:26:45;;;;;;;9.65;3.83;;;23.40;99.90;;;;;;6303771;22;20003;-83
2022/08/13 00:29:11;;;;;;;5.72;3.50;;;23.40;99.90;;;;;;6303982;22;20007;-81
2022/08/13 00:31:37;;;;;;;10.80;3.72;;;23.40;99.90;;;;;;6303885;22;20006;-81
2022/08/13 00:34:03;;;;;;;6.18;3.72;;;23.40;99.90;;;;;;6303768;22;20080;-86
2022/08/13 00:36:32;;;;;;;6.88;3.50;;;23.40;99.90;;;;;;6303897;22;20088;-81
2022/08/13 00:38:57;;;;;;;6.05;3.42;;;23.50;99.90;;;;;;6303614;22;20074;-81
2022/08/13 00:41:39;;;;;;;7.55;3.63;;;23.50;99.90;;;;;;6304747;22;20038;-86
2022/08/13 00:44:07;;;;;;;4.80;3.47;;;23.50;99.90;;;;;;6303356;22;20080;-81
2022/08/13 00:46:33;;;;;;;;;;;23.40;99.90;;;;;;6304309;22;19996;-81
2022/08/13 00:49:01;;;;;;;6.47;3.60;;;23.50;99.90;;;;;;6303559;22;19907;-91
2022/08/13 00:51:28;;;;;;;5.95;3.45;;;23.50;99.90;;;;;;6303520;22;20049;-87
2022/08/13 00:53:54;;;;;;;6.50;3.63;;;23.40;99.90;;;;;;6304802;22;20037;-81
2022/08/13 00:56:24;;;;;;;6.53;3.70;;;23.40;99.90;;;;;;6303852;22;19995;-81
2022/08/13 00:58:51;;;;;;;4.78;3.22;;;23.40;99.90;;;;;;6303479;22;20385;-80
2022/08/13 01:01:18;;;;;;;8.20;3.50;;;23.30;99.90;;;;;;6303534;22;20056;-81
2022/08/13 01:03:45;;;;;;;9.43;3.55;;;23.20;99.90;;;;;;6304253;22;20013;-82
2022/08/13 01:06:11;;;;;;;6.65;3.67;;;23.20;99.90;;;;;;6307719;22;20000;-81
2022/08/13 01:08:41;;;;;;;8.07;3.55;;;23.10;99.90;;;;;;6312399;22;20062;-81
2022/08/13 01:11:11;;;;;;;6.57;3.47;;;23.00;99.90;;;;;;6317611;22;20006;-81
2022/08/13 01:13:39;;;;;;;4.65;3.60;;;22.90;99.90;;;;;;6309240;22;19995;-81
2022/08/13 01:16:07;;;;;;;4.93;3.85;;;22.80;99.90;;;;;;6305500;22;20045;-85
2022/08/13 01:18:36;;;;;;;;;;;22.70;99.90;;;;;;6304104;22;19996;-82
2022/08/13 01:21:15;;;;;;;6.47;3.70;;;22.60;99.90;;;;;;6303525;22;19910;-85
2022/08/13 01:23:44;;;;;;;7.65;3.92;;;22.50;99.90;;;;;;6303510;22;20021;-82
2022/08/13 01:26:12;;;;;;;9.70;3.78;;;22.50;99.90;;;;;;6303386;22;19995;-89
2022/08/13 01:28:39;;;;;;;5.13;3.60;;;22.40;99.90;;;;;;6303268;22;20003;-81
2022/08/13 01:31:06;;;;;;;7.60;4.05;;;22.40;99.90;;;;;;6303380;22;20003;-81
2022/08/13 01:33:36;;;;;;;4.38;3.97;;;22.40;99.90;;;;;;6304095;22;20078;-81
2022/08/13 01:36:07;;;;;;;6.05;4.15;;;22.30;99.90;;;;;;6303317;22;19999;-88
2022/08/13 01:38:35;;;;;;;6.57;3.80;;;22.20;99.90;;;;;;6303227;22;20010;-85
2022/08/13 01:41:02;;;;;;;6.72;3.95;;;22.20;99.90;;;;;;6303158;22;20008;-89
2022/08/13 01:43:30;;;;;;;5.68;3.90;;;22.20;99.90;;;;;;6303332;22;19995;-81
2022/08/13 01:45:58;;;;;;;;;;;22.10;99.90;;;;;;6304548;22;20082;-81
2022/08/13 01:51:21;;;;;;;7.72;4.22;;;22.00;99.90;;;;;;6303119;22;20433;-81
2022/08/13 01:53:52;;;;;;;10.15;3.90;;;22.00;99.90;;;;;;6302926;22;20070;-88
2022/08/13 01:56:21;;;;;;;5.45;4.30;;;22.00;99.90;;;;;;6302943;22;20269;-82
2022/08/13 01:58:49;;;;;;;11.20;4.07;;;21.90;99.90;;;;;;6303131;22;20010;-88
2022/08/13 02:01:15;;;;;;;5.93;3.78;;;21.90;99.90;;;;;;6303007;22;20011;-82
2022/08/13 02:03:44;;;;;;;6.28;3.90;;;21.90;99.90;;;;;;6275632;22;20478;-89
2022/08/13 02:06:11;;;;;;;6.32;4.10;;;21.80;99.90;;;;;;6302910;22;20003;-84
2022/08/13 02:08:40;;;;;;;13.50;4.20;;;21.80;99.90;;;;;;6302816;22;19995;-81
2022/08/13 02:11:06;;;;;;;10.27;4.03;;;21.80;99.90;;;;;;6303533;22;20003;-81
2022/08/13 02:13:32;;;;;;;5.82;3.60;;;21.70;99.90;;;;;;6302954;22;20075;-81
2022/08/13 02:15:58;;;;;;;6.88;4.25;;;21.70;99.90;;;;;;6303915;22;20435;-81
2022/08/13 02:18:26;;;;;;;5.55;4.10;;;21.70;99.90;;;;;;6302785;22;20009;-81
2022/08/13 02:20:54;;;;;;;5.45;4.30;;;21.60;99.90;;;;;;6302561;22;20007;-81
2022/08/13 02:23:22;;;;;;;6.72;4.47;;;21.50;99.90;;;;;;6302726;22;20007;-85
2022/08/13 02:25:50;;;;;;;7.78;3.60;;;21.40;99.90;;;;;;6275449;22;20331;-88
2022/08/13 02:28:18;;;;;;;;;;;21.40;99.90;;;;;;6303418;22;20493;-82
2022/08/13 02:30:45;;;;;;;7.90;3.75;;;21.30;99.90;;;;;;6302619;22;19944;-84
2022/08/13 02:33:11;;;;;;;5.10;3.80;;;21.30;99.90;;;;;;6302720;22;19999;-89
2022/08/13 02:35:37;;;;;;;9.18;4.00;;;21.20;99.90;;;;;;6302442;22;19995;-81
2022/08/13 02:38:05;;;;;;;9.13;3.92;;;21.00;99.90;;;;;;6302822;22;20010;-80
2022/08/13 02:43:16;;;;;;;6.47;3.85;;;21.00;99.90;;;;;;6302496;22;20050;-82
2022/08/13 02:45:45;;;;;;;5.35;3.90;;;21.00;99.90;;;;;;6302386;22;19999;-88
2022/08/13 02:48:11;;;;;;;8.80;4.10;;;20.90;99.90;;;;;;6302569;22;20447;-81
2022/08/13 02:50:42;;;;;;;7.80;4.30;;;20.90;99.90;;;;;;6302576;22;20346;-80
2022/08/13 02:53:09;;;;;;;5.60;3.88;;;20.90;99.90;;;;;;6302612;22;20003;-80
2022/08/13 02:55:36;;;;;;;6.57;4.20;;;20.80;99.90;;;;;;6302846;22;20045;-80
2022/08/13 02:58:04;;;;;;;5.70;3.92;;;20.70;99.90;;;;;;6302945;22;20310;-81
2022/08/13 03:00:30;;;;;;;10.07;4.32;;;20.70;99.90;;;;;;6303509;22;19999;-85
2022/08/13 03:02:57;;;;;;;5.38;4.13;;;20.60;99.90;;;;;;6302389;22;20014;-81
2022/08/13 03:05:23;;;;;;;5.57;4.20;;;20.70;99.90;;;;;;6302830;22;20026;-82
2022/08/13 03:07:49;;;;;;;8.05;4.57;;;20.60;99.90;;;;;;6302582;22;20431;-81
2022/08/13 03:10:17;;;;;;;8.48;4.35;;;20.60;99.90;;;;;;6302313;22;19996;-82
2022/08/13 03:12:48;;;;;;;;;;;20.60;99.90;;;;;;6303179;22;20002;-81
2022/08/13 03:15:17;;;;;;;7.82;4.43;;;20.60;99.90;;;;;;6302387;22;19922;-87
2022/08/13 03:17:44;;;;;;;4.25;3.85;;;20.50;99.90;;;;;;6302649;22;20066;-85
2022/08/13 03:20:15;;;;;;;5.35;4.47;;;20.50;99.90;;;;;;6302581;22;19999;-80
2022/08/13 03:22:47;;;;;;;6.15;3.88;;;20.40;99.90;;;;;;6302546;22;20034;-82
2022/08/13 03:25:14;;;;;;;5.25;3.85;;;20.50;99.90;;;;;;6302385;22;20424;-80
2022/08/13 03:27:39;;;;;;;7.00;4.00;;;20.40;99.90;;;;;;6302306;22;20073;-82
2022/08/13 03:30:06;;;;;;;4.63;3.78;;;20.40;99.90;;;;;;6302154;22;20367;-80
2022/08/13 03:32:36;;;;;;;4.30;3.80;;;20.50;99.90;;;;;;6303427;22;19995;-81
2022/08/13 03:35:02;;;;;;;8.60;4.20;;;20.40;99.90;;;;;;6276011;22;20053;-81
2022/08/13 03:37:28;;;;;;;5.75;4.13;;;20.40;99.90;;;;;;6302291;22;20000;-81
2022/08/13 03:39:54;;;;;;;7.30;4.35;;;20.30;99.90;;;;;;6302197;22;20199;-81
2022/08/13 03:42:19;;;;;;;7.43;4.18;;;20.30;99.90;;;;;;6302191;22;20015;-89
2022/08/13 03:44:45;;;;;;;6.07;4.07;;;20.30;99.90;;;;;;6302480;22;20000;-83
2022/08/13 03:47:13;;;;;;;7.25;4.30;;;20.20;99.90;;;;;;6302827;22;20007;-83
2022/08/13 03:49:39;;;;;;;6.70;4.40;;;20.30;99.90;;;;;;6302361;22;20086;-84
2022/08/13 03:52:05;;;;;;;8.48;4.07;;;20.30;99.90;;;;;;6303076;22;20027;-81
2022/08/13 03:54:31;;;;;;;6.18;4.00;;;20.20;99.90;;;;;;6308240;22;19996;-81
2022/08/13 03:56:56;;;;;;;8.38;4.22;;;20.20;99.90;;;;;;6309106;22;20455;-81
2022/08/13 03:59:22;;;;;;;5.85;4.20;;;20.20;99.90;;;;;;6308043;22;20129;-81
2022/08/13 04:01:53;;;;;;;7.05;4.22;;;20.20;99.90;;;;;;6278008;22;20037;-81
2022/08/13 04:04:20;;;;;;;6.32;4.10;;;20.10;99.90;;;;;;6303644;22;20045;-82
2022/08/13 04:06:46;;;;;;;7.88;3.92;;;20.10;99.90;;;;;;6274968;22;20007;-86
2022/08/13 04:09:12;;;;;;;7.43;4.53;;;20.10;99.90;;;;;;6302303;22;19996;-83
2022/08/13 04:11:37;;;;;;;8.70;4.55;;;20.10;99.90;;;;;;6302054;22;20003;-81
2022/08/13 04:14:03;;;;;;;11.65;4.40;;;20.00;99.90;;;;;;6303287;22;20317;-81
2022/08/13 04:16:31;;;;;;;7.50;4.45;;;20.00;99.90;;;;;;6274918;22;20090;-81
2022/08/13 04:18:58;;;;;;;5.85;4.40;;;20.00;99.90;;;;;;6303543;22;20436;-81
2022/08/13 04:21:31;;;;;;;5.45;4.20;;;19.90;99.90;;;;;;6304040;22;20030;-82
2022/08/13 04:23:57;;;;;;;7.18;4.68;;;19.90;99.90;;;;;;6304055;22;20025;-87
2022/08/13 04:26:25;;;;;;;11.18;4.78;;;19.90;99.90;;;;;;6304140;22;20004;-90
2022/08/13 04:28:53;;;;;;;8.35;4.50;;;19.80;99.90;;;;;;6304233;22;19995;-81
2022/08/13 04:31:19;;;;;;;8.52;4.38;;;19.80;99.90;;;;;;6304171;22;20078;-84
2022/08/13 04:33:45;;;;;;;8.50;4.35;;;19.70;99.90;;;;;;6303957;22;20007;-82
2022/08/13 04:36:12;;;;;;;6.53;4.03;;;19.70;99.90;;;;;;6304272;22;20007;-81
2022/08/13 04:38:38;;;;;;;8.60;4.43;;;19.70;99.90;;;;;;6304009;22;20090;-81
2022/08/13 04:41:04;;;;;;;7.00;4.55;;;19.70;99.90;;;;;;6305035;22;20388;-85
2022/08/13 04:43:30;;;;;;;14.00;4.43;;;19.70;99.90;;;;;;6303889;22;20003;-82
2022/08/13 04:46:00;;;;;;;5.38;4.32;;;19.50;99.90;;;;;;6303724;22;20439;-82
2022/08/13 04:48:33;;;;;;;9.90;4.45;;;19.60;99.90;;;;;;6303672;22;20007;-80
2022/08/13 04:51:00;;;;;;;5.97;4.40;;;19.60;99.90;;;;;;6303708;22;20010;-84
2022/08/13 04:53:31;;;;;;;10.48;4.53;;;19.60;99.90;;;;;;6303562;22;20000;-82
2022/08/13 04:55:58;;;;;;;6.88;4.80;;;19.60;99.90;;;;;;6303758;22;20007;-86
2022/08/13 04:58:32;;;;;;;6.15;4.65;;;19.50;99.90;;;;;;6303779;22;19995;-85
2022/08/13 05:01:06;;;;;;;5.15;4.25;;;19.50;99.90;;;;;;6303581;22;20875;-91
2022/08/13 05:03:32;;;;;;;8.63;4.32;;;19.40;99.90;;;;;;6303495;22;20023;-84
2022/08/13 05:05:57;;;;;;;9.65;4.57;;;19.40;99.90;;;;;;6303751;22;20007;-87
2022/08/13 05:08:23;;;;;;;7.57;4.00;;;19.40;99.90;;;;;;6303732;22;20070;-83
2022/08/13 05:10:50;;;;;;;7.32;4.00;;;19.30;99.90;;;;;;6303565;22;20052;-88
2022/08/13 05:13:30;;;;;;;5.15;3.95;;;19.40;99.90;;;;;;6303688;22;20160;-83
2022/08/13 05:16:02;;;;;;;8.32;4.50;;;19.40;99.90;;;;;;6303535;22;20443;-81
2022/08/13 05:18:30;;;;;;;5.85;3.95;;;19.40;99.90;;;;;;6303306;22;19999;-81
2022/08/13 05:20:59;;;;;;;4.57;4.03;;;19.40;99.90;;;;;;6303607;22;20006;-90
2022/08/13 05:23:24;;;;;;;5.57;4.40;;;19.40;99.90;;;;;;6276451;22;20106;-92
2022/08/13 05:25:50;;;;;;;11.13;4.45;;;19.40;99.90;;;;;;6303514;22;20373;-92
2022/08/13 05:28:17;;;;;;;6.75;4.32;;;19.40;99.90;;;;;;6276199;22;20018;-88
2022/08/13 05:30:46;;;;;;;13.07;4.60;;;19.40;99.90;;;;;;6302825;22;19999;-81
2022/08/13 05:33:24;;;;;;;7.57;4.60;;;19.40;99.90;;;;;;6303383;22;20358;-81
2022/08/13 05:35:53;;;;;;;8.80;4.43;;;19.40;99.90;;;;;;6303400;22;20000;-81
2022/08/13 05:38:23;;;;;;;7.78;4.35;;;19.40;99.90;;;;;;6303407;22;19999;-81
2022/08/13 05:40:50;;;;;;;6.03;4.40;;;19.40;99.90;;;;;;6303252;22;20003;-88
2022/08/13 05:43:19;;;;;;;5.68;3.83;;;19.50;99.90;;;;;;6303032;22;20034;-87
2022/08/13 05:46:02;;;;;;;6.40;4.00;;;19.50;99.90;;;;;;6303377;22;19995;-84
2022/08/13 05:48:30;;;;;;;7.85;4.50;;;19.40;99.90;;;;;;6303052;22;20443;-81
2022/08/13 05:51:00;;;;;;;5.68;3.90;;;19.50;99.90;;;;;;6303196;22;20003;-82
2022/08/13 05:53:27;;;;;;;5.88;3.95;;;19.50;99.90;;;;;;6303457;22;20003;-82
2022/08/13 05:55:56;;;;;;;10.93;4.07;;;19.60;99.90;;;;;;6302873;22;20006;-81
2022/08/13 05:58:23;;;;;;;5.55;4.00;;;19.60;99.90;;;;;;6303160;22;20525;-81
2022/08/13 06:03:35;;;;;;;5.70;3.97;;;19.70;99.90;;;;;;6302813;22;20504;-89
2022/08/13 06:06:08;;;;;;;6.78;3.97;;;19.80;99.90;;;;;;6303157;22;20487;-81
2022/08/13 06:08:36;;;;;;;5.00;3.83;;;19.80;99.90;;;;;;6303133;22;20003;-85
2022/08/13 06:11:05;;;;;;;7.50;4.00;;;19.50;99.90;;;;;;6303006;22;20683;-84
2022/08/13 06:13:33;;;;;;;8.25;3.80;;;20.00;99.90;;;;;;6303450;22;20006;-81
2022/08/13 06:16:00;;;;;;;7.25;4.20;;;20.10;99.90;;;;;;6303163;22;20010;-81
2022/08/13 06:18:35;;;;;;;7.45;4.38;;;20.10;99.90;;;;;;6302947;22;20000;-81
2022/08/13 06:21:04;;;;;;;6.55;3.92;;;20.20;99.90;;;;;;6303287;22;20037;-81
2022/08/13 06:23:32;;;;;;;9.25;4.28;;;20.30;99.90;;;;;;6303957;22;20003;-81
2022/08/13 06:25:59;;;;;;;4.47;3.60;;;20.30;99.90;;;;;;6303008;22;20022;-80
2022/08/13 06:28:29;;;;;;;5.55;3.88;;;20.40;99.90;;;;;;6306076;22;20308;-82
2022/08/13 06:31:00;;;;;;;7.97;3.90;;;20.50;99.90;;;;;;6305800;22;20003;-92
2022/08/13 06:33:28;;;;;;;10.85;4.03;;;20.60;99.90;;;;;;6303051;22;19996;-82
2022/08/13 06:36:09;;;;;;;11.70;4.00;;;20.70;99.90;;;;;;6305686;22;20009;-81
2022/08/13 06:38:48;;;;;;;5.13;3.80;;;20.70;99.90;;;;;;6306801;22;20003;-82
2022/08/13 06:41:15;;;;;;;11.23;3.80;;;20.80;99.90;;;;;;6316606;22;20055;-81
2022/08/13 06:43:46;;;;;;;6.07;3.88;;;20.80;99.90;;;;;;6287751;22;20025;-81
2022/08/13 06:46:13;;;;;;;9.80;4.07;;;20.90;99.90;;;;;;6313391;22;20007;-82
2022/08/13 06:48:39;;;;;;;9.07;3.83;;;21.00;99.90;;;;;;6307249;22;20007;-83
2022/08/13 06:51:07;;;;;;;7.10;3.90;;;21.00;99.90;;;;;;6306212;22;20319;-83
2022/08/13 06:53:35;;;;;;;8.82;4.00;;;21.10;99.90;;;;;;6302429;22;20026;-81
2022/08/13 06:56:06;;;;;;;9.60;4.07;;;21.20;99.90;;;;;;6303143;22;20171;-80
2022/08/13 06:58:34;;;;;;;8.13;3.63;;;21.30;99.90;;;;;;6302958;22;20006;-84
2022/08/13 07:01:00;;;;;;;5.70;3.53;;;21.40;99.90;;;;;;6302288;22;20025;-81
2022/08/13 07:03:28;;;;;;;6.38;3.70;;;21.50;99.90;;;;;;6303263;22;20003;-83
2022/08/13 07:05:58;;;;;;;5.70;3.67;;;21.60;99.90;;;;;;6303345;22;20025;-91
2022/08/13 07:08:28;;;;;;;4.25;3.20;;;21.70;99.90;;;;;;6303081;22;19999;-91
2022/08/13 07:11:44;;;;;;;5.22;3.10;;;21.80;99.90;;;;;;6302375;22;20049;-81
2022/08/13 07:13:49;;;;;;;13.85;3.00;;;21.90;99.90;;;;;;6281413;22;20327;-82
2022/08/13 07:16:16;;;;;;;7.45;2.55;;;22.00;99.90;;;;;;6303871;22;20332;-81
2022/08/13 07:18:46;;;;;;;7.13;2.42;;;22.10;99.90;;;;;;6302927;22;20010;-81
2022/08/13 07:21:15;;;;;;;6.55;2.78;;;22.20;99.90;;;;;;6303106;22;20000;-86
2022/08/13 07:23:42;;;;;;;5.57;2.38;;;22.30;99.90;;;;;;6302511;22;20017;-89
2022/08/13 07:26:16;;;;;;;6.40;2.58;;;22.40;99.90;;;;;;6302392;22;20404;-82
2022/08/13 07:28:44;;;;;;;8.48;2.47;;;22.50;99.90;;;;;;6303110;22;20348;-81
2022/08/13 07:31:11;;;;;;;7.20;2.78;;;22.60;99.90;;;;;;6302822;22;20440;-86
2022/08/13 07:33:44;;;;;;;4.60;2.47;;;22.70;99.90;;;;;;6303251;22;20119;-91
2022/08/13 07:36:14;;;;;;;3.33;2.53;;;22.90;99.90;;;;;;6277910;22;20446;-93
2022/08/13 07:38:43;;;;;;;10.35;2.33;;;23.10;99.90;;;;;;6302930;22;20327;-93
2022/08/13 07:41:12;;;;;;;10.02;2.42;;;23.10;99.90;;;;;;6302279;22;20012;-91
2022/08/13 07:43:43;;;;;;;6.32;2.47;;;23.30;99.90;;;;;;6302538;22;20000;-84
2022/08/13 07:46:11;;;;;;;7.55;2.53;;;23.40;99.90;;;;;;6302231;22;20003;-88
2022/08/13 07:48:40;;;;;;;7.65;2.40;;;23.60;99.90;;;;;;6275281;22;20396;-88
2022/08/13 07:51:19;;;;;;;7.25;2.42;;;23.70;99.90;;;;;;6302710;22;20006;-90
2022/08/13 07:53:53;;;;;;;11.07;2.65;;;23.80;99.90;;;;;;6304093;22;19999;-85
2022/08/13 07:56:28;;;;;;;3.88;2.40;;;24.00;99.90;;;;;;6304359;22;20070;-82
2022/08/13 07:58:58;;;;;;;3.97;2.22;;;24.10;99.90;;;;;;6303813;22;20313;-85
2022/08/13 08:01:26;;;;;;;6.25;2.25;;;24.20;99.90;;;;;;6276146;22;20015;-83
2022/08/13 08:03:54;;;;;;;4.45;2.45;;;24.40;99.90;;;;;;6304019;22;20339;-82
2022/08/13 08:06:21;;;;;;;6.65;2.30;;;24.60;99.90;;;;;;6304029;22;20014;-81
2022/08/13 08:08:49;;;;;;;4.38;2.22;;;24.80;99.90;;;;;;6304830;22;20180;-82
2022/08/13 08:12:32;;;;;;;11.50;2.13;;;24.90;99.90;;;;;;6304843;22;20007;-82
2022/08/13 08:14:01;;;;;;;6.68;2.17;;;25.00;99.90;;;;;;6303676;22;20320;-84
2022/08/13 08:16:31;;;;;;;5.07;2.17;;;25.20;99.90;;;;;;6303991;22;19999;-86
2022/08/13 08:19:00;;;;;;;5.53;2.22;;;25.40;99.90;;;;;;6303435;22;20457;-82
2022/08/13 08:21:27;;;;;;;5.47;2.10;;;25.50;99.90;;;;;;6304065;22;20000;-83
2022/08/13 08:24:02;;;;;;;12.90;2.22;;;25.60;99.90;;;;;;6305163;22;20014;-88
2022/08/13 08:26:30;;;;;;;4.32;2.10;;;25.80;99.90;;;;;;6277494;22;20004;-87
2022/08/13 08:28:58;;;;;;;9.20;2.40;;;25.90;99.90;;;;;;6281173;22;20351;-83
2022/08/13 08:31:24;;;;;;;;;;;26.00;99.90;;;;;;6310879;22;19995;-85
2022/08/13 08:33:54;;;;;;;138.43;7.70;;;26.20;99.90;;;;;;6309730;22;19899;-82
2022/08/13 08:36:19;;;;;;;284.50;14.07;;;26.30;99.90;;;;;;6306990;22;20026;-83
2022/08/13 08:44:23;;;;;;;5.15;2.30;;;26.60;99.90;;;;;;6309176;22;20041;-83
2022/08/13 08:46:52;;;;;;;17.48;2.80;;;26.90;99.90;;;;;;6307560;22;20080;-83
2022/08/13 08:49:21;;;;;;;7.95;2.13;;;26.60;99.90;;;;;;6307311;22;20084;-84
2022/08/13 08:51:53;;;;;;;14.55;2.22;;;26.90;99.90;;;;;;6307297;22;20003;-83
2022/08/13 08:54:20;;;;;;;8.93;2.20;;;27.10;99.90;;;;;;6304680;22;20401;-83
2022/08/13 08:56:47;;;;;;;8.45;2.17;;;27.20;99.90;;;;;;6304148;22;20009;-83
2022/08/13 08:59:15;;;;;;;10.40;2.00;;;27.20;99.90;;;;;;6303540;22;20003;-90
2022/08/13 09:01:42;;;;;;;5.63;2.00;;;27.30;99.90;;;;;;6303922;22;20453;-82
2022/08/13 09:04:13;;;;;;;2.73;1.90;;;27.30;99.90;;;;;;6303650;22;19999;-82
2022/08/13 09:06:41;;;;;;;9.10;2.20;;;27.40;99.90;;;;;;6303683;22;20234;-83
2022/08/13 09:09:07;;;;;;;5.50;1.88;;;27.60;99.90;;;;;;6303714;22;20027;-85
2022/08/13 09:11:35;;;;;;;6.18;2.00;;;27.60;99.90;;;;;;6303499;22;20076;-83
2022/08/13 09:14:08;;;;;;;7.07;2.17;;;27.80;99.90;;;;;;6277056;22;20003;-83
2022/08/13 09:16:39;;;;;;;10.15;1.98;;;27.90;99.90;;;;;;6303684;22;20070;-84
2022/08/13 09:19:09;;;;;;;8.38;2.00;;;28.00;99.90;;;;;;6303720;22;20308;-87
2022/08/13 09:21:48;;;;;;;5.00;1.80;;;28.00;99.90;;;;;;6303149;22;20339;-86
2022/08/13 09:24:21;;;;;;;6.47;2.00;;;28.20;99.90;;;;;;6303462;22;20462;-83
2022/08/13 09:26:51;;;;;;;7.85;2.20;;;28.20;99.90;;;;;;6303090;22;20003;-87
2022/08/13 09:29:19;;;;;;;7.50;1.90;;;28.30;99.90;;;;;;6303974;22;19995;-84
2022/08/13 09:31:50;;;;;;;7.40;2.00;;;28.40;99.90;;;;;;6312971;22;20088;-83
2022/08/13 09:34:16;;;;;;;5.93;2.20;;;28.60;99.90;;;;;;6308256;22;19999;-86
2022/08/13 09:36:43;;;;;;;13.30;2.05;;;28.70;99.90;;;;;;6305132;22;19999;-84
2022/08/13 09:39:09;;;;;;;3.63;1.73;;;28.90;99.90;;;;;;6303596;22;20062;-84
2022/08/13 09:41:42;;;;;;;4.63;1.88;;;29.00;99.90;;;;;;6275721;22;20043;-86
2022/08/13 09:44:07;;;;;;;2.88;1.70;;;29.00;99.90;;;;;;6303662;22;19999;-83
2022/08/13 09:46:34;;;;;;;7.18;1.70;;;29.20;99.90;;;;;;6303159;22;20010;-83
2022/08/13 09:49:00;;;;;;;6.20;1.77;;;29.10;99.90;;;;;;6275670;22;20338;-90
2022/08/13 09:51:30;;;;;;;3.38;1.80;;;29.30;99.90;;;;;;6303329;22;19999;-85
2022/08/13 09:53:56;;;;;;;13.38;1.70;;;29.30;99.90;;;;;;6276449;22;20076;-84
2022/08/13 09:56:22;;;;;;;2.63;1.40;;;29.40;99.90;;;;;;6304022;22;20424;-87
2022/08/13 09:58:50;;;;;;;7.13;1.80;;;29.50;99.90;;;;;;6303275;22;20500;-86
2022/08/13 10:01:19;;;;;;;5.28;1.65;;;29.60;99.90;;;;;;6302544;22;19999;-80
2022/08/13 10:03:48;;;;;;;4.72;1.75;;;29.80;99.90;;;;;;6302433;22;20555;-83
2022/08/13 10:06:16;;;;;;;7.00;1.50;;;29.80;99.90;;;;;;6303082;22;19995;-87
2022/08/13 10:08:41;;;;;;;7.53;1.80;;;30.00;99.90;;;;;;6303271;22;20010;-83
2022/08/13 10:11:07;;;;;;;6.30;1.50;;;30.30;99.90;;;;;;6302891;22;20385;-87
2022/08/13 10:13:33;;;;;;;8.20;1.60;;;30.30;99.90;;;;;;6302823;22;20398;-90
2022/08/13 10:15:59;;;;;;;8.90;1.67;;;30.20;99.90;;;;;;6302451;22;20071;-85
2022/08/13 10:18:28;;;;;;;5.53;1.47;;;30.20;99.90;;;;;;6303619;22;20003;-84
2022/08/13 10:20:54;;;;;;;8.45;1.60;;;29.70;99.90;;;;;;6303912;22;20099;-85
2022/08/13 10:23:19;;;;;;;4.13;1.55;;;30.20;99.90;;;;;;6302882;22;20008;-83
2022/08/13 10:25:49;;;;;;;6.43;1.70;;;30.40;99.90;;;;;;6275299;22;20313;-83
2022/08/13 10:28:48;;;;;;;4.57;1.58;;;30.40;99.90;;;;;;6302680;22;20003;-84
2022/08/13 10:31:14;;;;;;;4.03;1.40;;;30.50;99.90;;;;;;6279326;22;20529;-83
2022/08/13 10:33:39;;;;;;;8.18;1.70;;;30.60;99.90;;;;;;6302654;22;20026;-82
2022/08/13 10:36:06;;;;;;;7.20;1.70;;;30.70;99.90;;;;;;6302644;22;20343;-84
2022/08/13 10:38:33;;;;;;;8.50;1.65;;;30.90;99.90;;;;;;6302529;22;20006;-83
2022/08/13 10:41:07;;;;;;;9.10;1.55;;;30.70;99.90;;;;;;6302423;22;20087;-89
2022/08/13 10:43:38;;;;;;;4.60;1.65;;;30.60;99.90;;;;;;6302852;22;20064;-85
2022/08/13 10:46:05;;;;;;;3.10;1.70;;;30.70;99.90;;;;;;6302926;22;20500;-84
2022/08/13 10:48:31;;;;;;;4.75;1.83;;;30.80;99.90;;;;;;6302322;22;20064;-85
2022/08/13 10:50:57;;;;;;;5.40;2.33;;;30.70;99.90;;;;;;6303583;22;20029;-84
2022/08/13 10:56:10;;;;;;;4.95;1.45;;;30.90;99.90;;;;;;6302309;22;20061;-84
2022/08/13 10:58:36;;;;;;;2.05;1.58;;;31.00;99.90;;;;;;6302585;22;20459;-86
2022/08/13 11:01:03;;;;;;;4.55;1.60;;;31.10;99.90;;;;;;6301850;22;20003;-84
2022/08/13 11:03:33;;;;;;;3.17;1.80;;;30.80;99.90;;;;;;6302024;22;20003;-85
2022/08/13 11:06:00;;;;;;;7.80;1.92;;;30.80;99.90;;;;;;6302167;22;20056;-84
2022/08/13 11:08:31;;;;;;;;;;;30.80;99.90;;;;;;6303744;22;20010;-87
2022/08/13 11:10:57;;;;;;;6.47;1.73;;;31.10;99.90;;;;;;6303511;22;20325;-84
2022/08/13 11:13:23;;;;;;;6.15;1.60;;;31.00;99.90;;;;;;6302504;22;19999;-84
2022/08/13 11:15:48;;;;;;;1.88;1.48;;;31.10;99.90;;;;;;6302321;22;20372;-90
2022/08/13 11:18:14;;;;;;;8.32;1.55;;;31.10;99.90;;;;;;6274734;22;20030;-86
2022/08/13 11:23:24;;;;;;;4.00;1.75;;;31.40;99.90;;;;;;6303008;22;20018;-86
2022/08/13 11:25:50;;;;;;;5.78;1.77;;;31.30;99.90;;;;;;6302240;22;20003;-85
2022/08/13 11:28:16;;;;;;;7.40;1.73;;;31.40;99.90;;;;;;6275808;22;20007;-87
2022/08/13 11:30:42;;;;;;;4.10;1.90;;;31.50;99.90;;;;;;6304309;22;20053;-85
2022/08/13 11:33:07;;;;;;;9.95;1.75;;;31.60;99.90;;;;;;6304244;22;20011;-84
2022/08/13 11:35:34;;;;;;;9.30;1.98;;;31.70;99.90;;;;;;6304141;22;20048;-90
2022/08/13 11:38:09;;;;;;;3.70;2.10;;;31.80;99.90;;;;;;6305899;22;20059;-88
2022/08/13 11:40:34;;;;;;;4.53;1.70;;;31.80;99.90;;;;;;6304407;22;19999;-86
2022/08/13 11:43:01;;;;;;;4.03;1.48;;;31.90;99.90;;;;;;6305064;22;20045;-84
2022/08/13 11:45:27;;;;;;;3.95;2.65;;;31.90;99.90;;;;;;6305381;22;20335;-85
2022/08/13 11:47:53;;;;;;;10.02;3.72;;;31.80;99.90;;;;;;6304160;22;20082;-84
2022/08/13 11:50:18;;;;;;;5.47;2.08;;;31.80;99.90;;;;;;6304375;22;20003;-88
2022/08/13 11:52:44;;;;;;;6.25;1.95;;;31.80;99.90;;;;;;6304677;22;20003;-85
2022/08/13 11:55:10;;;;;;;4.43;1.50;;;31.80;99.90;;;;;;6304242;22;20006;-84
2022/08/13 11:57:35;;;;;;;3.65;1.70;;;31.80;99.90;;;;;;6277381;22;20005;-86
2022/08/13 12:00:03;;;;;;;11.85;3.75;;;31.60;99.90;;;;;;6304572;22;20088;-84
2022/08/13 12:02:29;;;;;;;7.65;4.40;;;31.60;99.90;;;;;;6304705;22;20108;-86
2022/08/13 12:04:55;;;;;;;7.45;3.60;;;31.60;99.90;;;;;;6304285;22;20443;-85
2022/08/13 12:07:24;;;;;;;4.38;1.67;;;31.60;99.90;;;;;;6304156;22;20074;-85
2022/08/13 12:09:50;;;;;;;3.85;1.80;;;31.40;99.90;;;;;;6304161;22;20008;-89
2022/08/13 12:12:16;;;;;;;4.18;1.70;;;31.40;99.90;;;;;;6304728;22;20099;-89
2022/08/13 12:14:41;;;;;;;7.75;1.83;;;31.40;99.90;;;;;;6311818;22;19999;-87
2022/08/13 12:17:07;;;;;;;4.97;1.60;;;31.60;99.90;;;;;;6290819;22;20493;-85
2022/08/13 12:19:34;;;;;;;5.45;1.75;;;31.70;99.90;;;;;;6276282;22;20424;-83
2022/08/13 12:22:00;;;;;;;4.07;1.67;;;31.70;99.90;;;;;;6309907;22;20433;-84
2022/08/13 12:24:27;;;;;;;4.65;1.40;;;31.60;99.90;;;;;;6303465;22;19995;-82
2022/08/13 12:26:52;;;;;;;7.05;1.60;;;31.80;99.90;;;;;;6303385;22;20411;-88
2022/08/13 12:29:18;;;;;;;6.20;1.65;;;31.90;99.90;;;;;;6303554;22;20339;-84
2022/08/13 12:31:44;;;;;;;9.30;1.70;;;31.90;99.90;;;;;;6303230;22;20313;-84
2022/08/13 12:34:09;;;;;;;3.45;1.67;;;32.00;99.90;;;;;;6303353;22;20096;-90
2022/08/13 12:36:35;;;;;;;2.97;1.40;;;32.10;99.90;;;;;;6303181;22;19995;-84
2022/08/13 12:39:01;;;;;;;1.90;1.40;;;32.10;99.90;;;;;;6303975;22;20006;-89
2022/08/13 12:41:32;;;;;;;3.58;1.42;;;32.20;99.90;;;;;;6303172;22;20042;-88
2022/08/13 12:43:57;;;;;;;4.68;1.50;;;32.20;99.90;;;;;;6304150;22;20432;-88
2022/08/13 12:46:23;;;;;;;4.45;1.63;;;32.10;99.90;;;;;;6276140;22;20057;-86
2022/08/13 12:48:49;;;;;;;2.55;1.60;;;32.10;99.90;;;;;;6303496;22;20007;-90
2022/08/13 12:51:14;;;;;;;2.90;1.42;;;32.20;99.90;;;;;;6303297;22;20005;-85
2022/08/13 12:53:40;;;;;;;4.00;1.42;;;32.20;99.90;;;;;;6302961;22;20004;-89
2022/08/13 12:56:06;;;;;;;6.45;1.70;;;32.20;99.90;;;;;;6303139;22;20029;-89
2022/08/13 12:58:32;;;;;;;5.07;1.50;;;32.20;99.90;;;;;;6303799;22;20061;-88
2022/08/13 13:00:59;;;;;;;3.72;1.40;;;32.50;99.90;;;;;;6303352;22;20015;-91
2022/08/13 13:03:26;;;;;;;9.88;1.70;;;32.30;99.90;;;;;;6303208;22;20027;-89
2022/08/13 13:05:53;;;;;;;2.13;1.40;;;32.30;99.90;;;;;;6275955;22;20003;-91
2022/08/13 13:08:27;;;;;;;5.90;1.48;;;32.40;99.90;;;;;;6302919;22;19999;-90
2022/08/13 13:10:55;;;;;;;7.63;1.63;;;32.50;99.90;;;;;;6303222;22;19999;-94
2022/08/13 13:13:23;;;;;;;4.93;1.60;;;32.30;99.90;;;;;;6303489;22;20438;-92
2022/08/13 13:15:49;;;;;;;3.45;1.50;;;32.40;99.90;;;;;;6303308;22;20006;-92
2022/08/13 13:18:22;;;;;;;2.42;1.60;;;32.40;99.90;;;;;;6303340;22;20003;-91